sensor_id;sensor_type;location;lat;lon;timestamp;P1;durP1;ratioP1;P2;durP2;ratioP2
20792;SDS011;10556;-33.662;151.094;2023-03-01T00:03:08;1.30;;;1.20;;
20792;SDS011;10556;-33.662;151.094;2023-03-01T00:08:10;1.10;;;1.00;;
20792;SDS011;10556;-33.662;151.094;2023-03-01T00:13:13;1.63;;;1.00;;
20792;SDS011;10556;-33.662;151.094;2023-03-01T00:18:14;1.20;;;1.10;;
20792;SDS011;10556;-33.662;151.094;2023-03-01T00:23:16;1.77;;;1.02;;
20792;SDS011;10556;-33.662;151.094;2023-03-01T00:28:19;1.15;;;1.00;;
20792;SDS011;10556;-33.662;151.094;2023-03-01T00:33:20;1.00;;;0.90;;
20792;SDS011;10556;-33.662;151.094;2023-03-01T00:38:22;2.83;;;1.38;;
20792;SDS011;10556;-33.662;151.094;2023-03-01T00:43:25;3.72;;;1.42;;
20792;SDS011;10556;-33.662;151.094;2023-03-01T00:48:26;1.58;;;0.98;;
20792;SDS011;10556;-33.662;151.094;2023-03-01T00:53:27;0.57;;;0.50;;
20792;SDS011;10556;-33.662;151.094;2023-03-01T00:58:31;1.50;;;0.80;;
20792;SDS011;10556;-33.662;151.094;2023-03-01T01:03:32;1.30;;;0.70;;
20792;SDS011;10556;-33.662;151.094;2023-03-01T01:08:33;0.80;;;0.68;;
20792;SDS011;10556;-33.662;151.094;2023-03-01T01:13:36;0.80;;;0.70;;
20792;SDS011;10556;-33.662;151.094;2023-03-01T01:18:38;1.65;;;0.63;;
20792;SDS011;10556;-33.662;151.094;2023-03-01T01:23:39;0.90;;;0.60;;
20792;SDS011;10556;-33.662;151.094;2023-03-01T01:28:43;0.93;;;0.70;;
20792;SDS011;10556;-33.662;151.094;2023-03-01T01:33:44;1.85;;;0.70;;
20792;SDS011;10556;-33.662;151.094;2023-03-01T01:38:45;0.55;;;0.50;;
20792;SDS011;10556;-33.662;151.094;2023-03-01T01:43:49;1.15;;;0.60;;
20792;SDS011;10556;-33.662;151.094;2023-03-01T01:48:52;0.90;;;0.80;;
20792;SDS011;10556;-33.662;151.094;2023-03-01T01:53:55;0.50;;;0.50;;
20792;SDS011;10556;-33.662;151.094;2023-03-01T01:59:00;0.70;;;0.47;;
20792;SDS011;10556;-33.662;151.094;2023-03-01T02:04:02;0.90;;;0.63;;
20792;SDS011;10556;-33.662;151.094;2023-03-01T02:09:05;0.73;;;0.50;;
20792;SDS011;10556;-33.662;151.094;2023-03-01T02:14:09;0.85;;;0.70;;
20792;SDS011;10556;-33.662;151.094;2023-03-01T02:19:13;1.75;;;0.57;;
20792;SDS011;10556;-33.662;151.094;2023-03-01T02:24:18;3.17;;;1.10;;
20792;SDS011;10556;-33.662;151.094;2023-03-01T02:29:27;0.85;;;0.80;;
20792;SDS011;10556;-33.662;151.094;2023-03-01T02:34:28;4.15;;;1.05;;
20792;SDS011;10556;-33.662;151.094;2023-03-01T02:39:32;1.67;;;0.77;;
20792;SDS011;10556;-33.662;151.094;2023-03-01T02:44:36;2.35;;;0.77;;
20792;SDS011;10556;-33.662;151.094;2023-03-01T02:49:38;2.33;;;0.75;;
20792;SDS011;10556;-33.662;151.094;2023-03-01T02:54:40;1.30;;;0.77;;
20792;SDS011;10556;-33.662;151.094;2023-03-01T02:59:43;2.38;;;0.80;;
20792;SDS011;10556;-33.662;151.094;2023-03-01T03:04:44;1.45;;;0.90;;
20792;SDS011;10556;-33.662;151.094;2023-03-01T03:09:46;4.93;;;1.27;;
20792;SDS011;10556;-33.662;151.094;2023-03-01T03:14:49;1.00;;;0.70;;
20792;SDS011;10556;-33.662;151.094;2023-03-01T03:19:50;1.02;;;0.77;;
20792;SDS011;10556;-33.662;151.094;2023-03-01T03:24:51;1.73;;;0.60;;
20792;SDS011;10556;-33.662;151.094;2023-03-01T03:29:55;1.13;;;0.60;;
20792;SDS011;10556;-33.662;151.094;2023-03-01T03:34:56;0.88;;;0.60;;
20792;SDS011;10556;-33.662;151.094;2023-03-01T03:39:57;2.05;;;0.88;;
20792;SDS011;10556;-33.662;151.094;2023-03-01T03:45:01;1.13;;;0.65;;
20792;SDS011;10556;-33.662;151.094;2023-03-01T03:50:02;1.42;;;0.70;;
20792;SDS011;10556;-33.662;151.094;2023-03-01T03:55:04;1.17;;;0.60;;
20792;SDS011;10556;-33.662;151.094;2023-03-01T04:00:09;1.05;;;0.75;;
20792;SDS011;10556;-33.662;151.094;2023-03-01T04:05:11;1.02;;;0.73;;
20792;SDS011;10556;-33.662;151.094;2023-03-01T04:10:13;2.53;;;0.80;;
20792;SDS011;10556;-33.662;151.094;2023-03-01T04:15:17;2.70;;;0.45;;
20792;SDS011;10556;-33.662;151.094;2023-03-01T04:20:19;1.17;;;0.70;;
20792;SDS011;10556;-33.662;151.094;2023-03-01T04:25:21;3.20;;;0.75;;
20792;SDS011;10556;-33.662;151.094;2023-03-01T04:30:24;1.50;;;0.47;;
20792;SDS011;10556;-33.662;151.094;2023-03-01T04:35:25;1.42;;;0.40;;
20792;SDS011;10556;-33.662;151.094;2023-03-01T04:40:26;1.08;;;0.45;;
20792;SDS011;10556;-33.662;151.094;2023-03-01T04:45:30;3.05;;;0.45;;
20792;SDS011;10556;-33.662;151.094;2023-03-01T04:50:32;3.65;;;0.68;;
20792;SDS011;10556;-33.662;151.094;2023-03-01T04:55:33;0.70;;;0.38;;
20792;SDS011;10556;-33.662;151.094;2023-03-01T05:00:36;0.20;;;0.20;;
20792;SDS011;10556;-33.662;151.094;2023-03-01T05:05:38;0.30;;;0.20;;
20792;SDS011;10556;-33.662;151.094;2023-03-01T05:10:39;0.60;;;0.38;;
20792;SDS011;10556;-33.662;151.094;2023-03-01T05:15:42;1.45;;;0.45;;
20792;SDS011;10556;-33.662;151.094;2023-03-01T05:20:43;1.80;;;0.30;;
20792;SDS011;10556;-33.662;151.094;2023-03-01T05:25:45;3.05;;;0.65;;
20792;SDS011;10556;-33.662;151.094;2023-03-01T05:30:48;1.35;;;0.40;;
20792;SDS011;10556;-33.662;151.094;2023-03-01T05:35:49;3.05;;;0.30;;
20792;SDS011;10556;-33.662;151.094;2023-03-01T05:40:50;1.35;;;0.50;;
20792;SDS011;10556;-33.662;151.094;2023-03-01T05:45:53;1.25;;;0.50;;
20792;SDS011;10556;-33.662;151.094;2023-03-01T05:50:59;1.48;;;0.60;;
20792;SDS011;10556;-33.662;151.094;2023-03-01T05:56:02;2.50;;;0.68;;
20792;SDS011;10556;-33.662;151.094;2023-03-01T06:01:10;2.03;;;0.50;;
20792;SDS011;10556;-33.662;151.094;2023-03-01T06:06:11;1.55;;;0.60;;
20792;SDS011;10556;-33.662;151.094;2023-03-01T06:11:12;1.48;;;0.63;;
20792;SDS011;10556;-33.662;151.094;2023-03-01T06:16:16;1.20;;;0.50;;
20792;SDS011;10556;-33.662;151.094;2023-03-01T06:21:17;3.20;;;1.05;;
20792;SDS011;10556;-33.662;151.094;2023-03-01T06:26:18;3.00;;;0.50;;
20792;SDS011;10556;-33.662;151.094;2023-03-01T06:31:21;2.30;;;0.63;;
20792;SDS011;10556;-33.662;151.094;2023-03-01T06:36:23;2.67;;;0.90;;
20792;SDS011;10556;-33.662;151.094;2023-03-01T06:41:24;3.90;;;0.70;;
20792;SDS011;10556;-33.662;151.094;2023-03-01T06:46:27;1.60;;;0.50;;
20792;SDS011;10556;-33.662;151.094;2023-03-01T06:51:28;5.25;;;0.75;;
20792;SDS011;10556;-33.662;151.094;2023-03-01T06:56:29;4.70;;;0.73;;
20792;SDS011;10556;-33.662;151.094;2023-03-01T07:01:33;3.33;;;0.90;;
20792;SDS011;10556;-33.662;151.094;2023-03-01T07:06:34;4.95;;;1.05;;
20792;SDS011;10556;-33.662;151.094;2023-03-01T07:11:35;2.60;;;0.75;;
20792;SDS011;10556;-33.662;151.094;2023-03-01T07:16:38;4.18;;;0.85;;
20792;SDS011;10556;-33.662;151.094;2023-03-01T07:21:39;4.45;;;1.05;;
20792;SDS011;10556;-33.662;151.094;2023-03-01T07:26:41;5.03;;;1.00;;
20792;SDS011;10556;-33.662;151.094;2023-03-01T07:31:44;3.42;;;0.77;;
20792;SDS011;10556;-33.662;151.094;2023-03-01T07:36:45;5.93;;;1.15;;
20792;SDS011;10556;-33.662;151.094;2023-03-01T07:41:46;3.88;;;0.88;;
20792;SDS011;10556;-33.662;151.094;2023-03-01T07:46:50;4.43;;;1.00;;
20792;SDS011;10556;-33.662;151.094;2023-03-01T07:51:51;6.17;;;0.80;;
20792;SDS011;10556;-33.662;151.094;2023-03-01T07:56:52;7.50;;;1.30;;
20792;SDS011;10556;-33.662;151.094;2023-03-01T08:01:55;2.73;;;0.90;;
20792;SDS011;10556;-33.662;151.094;2023-03-01T08:06:56;6.77;;;1.27;;
20792;SDS011;10556;-33.662;151.094;2023-03-01T08:11:58;4.27;;;0.90;;
20792;SDS011;10556;-33.662;151.094;2023-03-01T08:17:01;6.13;;;1.10;;
20792;SDS011;10556;-33.662;151.094;2023-03-01T08:22:02;4.23;;;0.80;;
20792;SDS011;10556;-33.662;151.094;2023-03-01T08:27:03;8.90;;;1.47;;
20792;SDS011;10556;-33.662;151.094;2023-03-01T08:32:06;4.20;;;1.07;;
20792;SDS011;10556;-33.662;151.094;2023-03-01T08:37:08;5.53;;;1.00;;
20792;SDS011;10556;-33.662;151.094;2023-03-01T08:42:09;9.70;;;1.57;;
20792;SDS011;10556;-33.662;151.094;2023-03-01T08:47:12;4.40;;;0.90;;
20792;SDS011;10556;-33.662;151.094;2023-03-01T08:52:13;3.13;;;1.00;;
20792;SDS011;10556;-33.662;151.094;2023-03-01T08:57:14;3.43;;;0.67;;
20792;SDS011;10556;-33.662;151.094;2023-03-01T09:02:18;11.57;;;1.53;;
20792;SDS011;10556;-33.662;151.094;2023-03-01T09:07:19;3.87;;;0.93;;
20792;SDS011;10556;-33.662;151.094;2023-03-01T09:12:20;5.67;;;0.90;;
20792;SDS011;10556;-33.662;151.094;2023-03-01T09:17:24;4.53;;;1.13;;
20792;SDS011;10556;-33.662;151.094;2023-03-01T09:22:25;3.10;;;0.90;;
20792;SDS011;10556;-33.662;151.094;2023-03-01T09:27:26;3.90;;;0.97;;
20792;SDS011;10556;-33.662;151.094;2023-03-01T09:32:29;4.80;;;1.17;;
20792;SDS011;10556;-33.662;151.094;2023-03-01T09:37:31;4.43;;;0.90;;
20792;SDS011;10556;-33.662;151.094;2023-03-01T09:42:32;2.83;;;0.70;;
20792;SDS011;10556;-33.662;151.094;2023-03-01T09:47:36;3.63;;;0.93;;
20792;SDS011;10556;-33.662;151.094;2023-03-01T09:52:39;8.77;;;1.50;;
20792;SDS011;10556;-33.662;151.094;2023-03-01T09:57:43;4.77;;;1.10;;
20792;SDS011;10556;-33.662;151.094;2023-03-01T10:02:49;6.70;;;1.30;;
20792;SDS011;10556;-33.662;151.094;2023-03-01T10:07:53;5.50;;;1.30;;
20792;SDS011;10556;-33.662;151.094;2023-03-01T10:13:00;6.73;;;1.23;;
20792;SDS011;10556;-33.662;151.094;2023-03-01T10:18:06;4.03;;;0.87;;
20792;SDS011;10556;-33.662;151.094;2023-03-01T10:23:11;2.43;;;0.80;;
20792;SDS011;10556;-33.662;151.094;2023-03-01T10:28:15;5.43;;;1.23;;
20792;SDS011;10556;-33.662;151.094;2023-03-01T10:33:19;3.60;;;0.93;;
20792;SDS011;10556;-33.662;151.094;2023-03-01T10:38:22;2.10;;;0.93;;
20792;SDS011;10556;-33.662;151.094;2023-03-01T10:43:23;3.50;;;0.73;;
20792;SDS011;10556;-33.662;151.094;2023-03-01T10:48:27;4.20;;;1.00;;
20792;SDS011;10556;-33.662;151.094;2023-03-01T10:53:28;4.07;;;1.20;;
20792;SDS011;10556;-33.662;151.094;2023-03-01T10:58:30;5.20;;;1.00;;
20792;SDS011;10556;-33.662;151.094;2023-03-01T11:03:35;1.00;;;0.60;;
20792;SDS011;10556;-33.662;151.094;2023-03-01T11:08:37;4.27;;;1.13;;
20792;SDS011;10556;-33.662;151.094;2023-03-01T11:13:39;2.87;;;0.70;;
20792;SDS011;10556;-33.662;151.094;2023-03-01T11:18:57;2.00;;;0.77;;
20792;SDS011;10556;-33.662;151.094;2023-03-01T11:23:59;2.90;;;0.80;;
20792;SDS011;10556;-33.662;151.094;2023-03-01T11:29:03;6.23;;;1.17;;
20792;SDS011;10556;-33.662;151.094;2023-03-01T11:34:08;4.00;;;1.00;;
20792;SDS011;10556;-33.662;151.094;2023-03-01T11:39:17;1.70;;;0.70;;
20792;SDS011;10556;-33.662;151.094;2023-03-01T11:44:20;2.00;;;1.00;;
20792;SDS011;10556;-33.662;151.094;2023-03-01T11:49:32;3.67;;;0.97;;
20792;SDS011;10556;-33.662;151.094;2023-03-01T11:54:41;3.50;;;1.13;;
20792;SDS011;10556;-33.662;151.094;2023-03-01T11:59:55;7.83;;;1.40;;
20792;SDS011;10556;-33.662;151.094;2023-03-01T12:05:15;6.20;;;1.10;;
20792;SDS011;10556;-33.662;151.094;2023-03-01T12:10:20;3.30;;;0.83;;
20792;SDS011;10556;-33.662;151.094;2023-03-01T12:20:54;2.43;;;1.03;;
20792;SDS011;10556;-33.662;151.094;2023-03-01T12:25:58;2.37;;;0.83;;
20792;SDS011;10556;-33.662;151.094;2023-03-01T12:31:10;2.07;;;0.70;;
20792;SDS011;10556;-33.662;151.094;2023-03-01T12:36:33;3.80;;;1.03;;
20792;SDS011;10556;-33.662;151.094;2023-03-01T12:41:42;3.37;;;1.13;;
20792;SDS011;10556;-33.662;151.094;2023-03-01T12:46:50;2.07;;;0.80;;
20792;SDS011;10556;-33.662;151.094;2023-03-01T12:51:56;2.80;;;0.80;;
20792;SDS011;10556;-33.662;151.094;2023-03-01T12:57:02;2.47;;;0.80;;
20792;SDS011;10556;-33.662;151.094;2023-03-01T13:02:05;3.83;;;1.10;;
20792;SDS011;10556;-33.662;151.094;2023-03-01T13:07:27;8.83;;;1.30;;
20792;SDS011;10556;-33.662;151.094;2023-03-01T13:12:51;4.50;;;1.10;;
20792;SDS011;10556;-33.662;151.094;2023-03-01T13:17:53;2.87;;;1.13;;
20792;SDS011;10556;-33.662;151.094;2023-03-01T13:23:03;5.37;;;1.43;;
20792;SDS011;10556;-33.662;151.094;2023-03-01T13:33:37;3.40;;;0.97;;
20792;SDS011;10556;-33.662;151.094;2023-03-01T13:38:46;4.30;;;0.97;;
20792;SDS011;10556;-33.662;151.094;2023-03-01T13:43:48;2.00;;;0.90;;
20792;SDS011;10556;-33.662;151.094;2023-03-01T13:48:49;2.57;;;1.10;;
20792;SDS011;10556;-33.662;151.094;2023-03-01T13:53:53;1.80;;;1.00;;
20792;SDS011;10556;-33.662;151.094;2023-03-01T13:58:58;3.40;;;1.30;;
20792;SDS011;10556;-33.662;151.094;2023-03-01T14:03:59;3.33;;;1.40;;
20792;SDS011;10556;-33.662;151.094;2023-03-01T14:09:04;3.23;;;0.80;;
20792;SDS011;10556;-33.662;151.094;2023-03-01T14:19:21;6.13;;;1.07;;
20792;SDS011;10556;-33.662;151.094;2023-03-01T14:24:26;3.47;;;1.03;;
20792;SDS011;10556;-33.662;151.094;2023-03-01T14:29:28;3.33;;;1.10;;
20792;SDS011;10556;-33.662;151.094;2023-03-01T14:34:33;3.00;;;1.00;;
20792;SDS011;10556;-33.662;151.094;2023-03-01T14:39:36;3.40;;;1.30;;
20792;SDS011;10556;-33.662;151.094;2023-03-01T14:44:38;2.00;;;0.87;;
20792;SDS011;10556;-33.662;151.094;2023-03-01T14:49:42;4.37;;;1.17;;
20792;SDS011;10556;-33.662;151.094;2023-03-01T14:54:46;1.17;;;0.67;;
20792;SDS011;10556;-33.662;151.094;2023-03-01T14:59:48;4.57;;;1.10;;
20792;SDS011;10556;-33.662;151.094;2023-03-01T15:04:50;4.87;;;1.50;;
20792;SDS011;10556;-33.662;151.094;2023-03-01T15:09:54;2.53;;;0.87;;
20792;SDS011;10556;-33.662;151.094;2023-03-01T15:14:55;4.10;;;1.00;;
20792;SDS011;10556;-33.662;151.094;2023-03-01T15:19:57;2.60;;;0.77;;
20792;SDS011;10556;-33.662;151.094;2023-03-01T15:25:01;3.97;;;1.07;;
20792;SDS011;10556;-33.662;151.094;2023-03-01T15:30:02;3.17;;;1.20;;
20792;SDS011;10556;-33.662;151.094;2023-03-01T15:40:22;3.50;;;0.90;;
20792;SDS011;10556;-33.662;151.094;2023-03-01T15:45:24;2.17;;;0.97;;
20792;SDS011;10556;-33.662;151.094;2023-03-01T15:50:26;8.77;;;1.10;;
20792;SDS011;10556;-33.662;151.094;2023-03-01T15:55:30;2.17;;;1.00;;
20792;SDS011;10556;-33.662;151.094;2023-03-01T16:00:31;4.33;;;1.13;;
20792;SDS011;10556;-33.662;151.094;2023-03-01T16:05:33;2.43;;;1.00;;
20792;SDS011;10556;-33.662;151.094;2023-03-01T16:10:36;5.43;;;1.20;;
20792;SDS011;10556;-33.662;151.094;2023-03-01T16:15:38;4.67;;;1.20;;
20792;SDS011;10556;-33.662;151.094;2023-03-01T16:20:39;4.20;;;1.17;;
20792;SDS011;10556;-33.662;151.094;2023-03-01T16:25:43;3.80;;;1.00;;
20792;SDS011;10556;-33.662;151.094;2023-03-01T16:30:45;5.97;;;1.40;;
20792;SDS011;10556;-33.662;151.094;2023-03-01T16:35:47;5.23;;;1.23;;
20792;SDS011;10556;-33.662;151.094;2023-03-01T16:40:50;1.50;;;0.90;;
20792;SDS011;10556;-33.662;151.094;2023-03-01T16:45:52;3.77;;;1.33;;
20792;SDS011;10556;-33.662;151.094;2023-03-01T16:50:59;2.83;;;1.20;;
20792;SDS011;10556;-33.662;151.094;2023-03-01T16:56:03;6.67;;;1.20;;
20792;SDS011;10556;-33.662;151.094;2023-03-01T17:01:06;3.23;;;1.70;;
20792;SDS011;10556;-33.662;151.094;2023-03-01T17:06:09;3.40;;;1.30;;
20792;SDS011;10556;-33.662;151.094;2023-03-01T17:11:13;3.00;;;1.27;;
20792;SDS011;10556;-33.662;151.094;2023-03-01T17:16:15;5.43;;;1.40;;
20792;SDS011;10556;-33.662;151.094;2023-03-01T17:21:16;2.23;;;1.00;;
20792;SDS011;10556;-33.662;151.094;2023-03-01T17:26:19;6.33;;;1.47;;
20792;SDS011;10556;-33.662;151.094;2023-03-01T17:31:21;4.40;;;1.37;;
20792;SDS011;10556;-33.662;151.094;2023-03-01T17:36:23;2.37;;;1.10;;
20792;SDS011;10556;-33.662;151.094;2023-03-01T17:41:26;3.43;;;1.73;;
20792;SDS011;10556;-33.662;151.094;2023-03-01T17:46:27;5.30;;;1.23;;
20792;SDS011;10556;-33.662;151.094;2023-03-01T17:51:29;5.00;;;1.50;;
20792;SDS011;10556;-33.662;151.094;2023-03-01T17:56:32;3.60;;;1.37;;
20792;SDS011;10556;-33.662;151.094;2023-03-01T18:01:33;4.87;;;1.13;;
20792;SDS011;10556;-33.662;151.094;2023-03-01T18:06:34;3.63;;;1.37;;
20792;SDS011;10556;-33.662;151.094;2023-03-01T18:11:39;3.73;;;1.23;;
20792;SDS011;10556;-33.662;151.094;2023-03-01T18:16:40;3.60;;;1.40;;
20792;SDS011;10556;-33.662;151.094;2023-03-01T18:21:41;3.67;;;1.30;;
20792;SDS011;10556;-33.662;151.094;2023-03-01T18:26:44;2.23;;;1.10;;
20792;SDS011;10556;-33.662;151.094;2023-03-01T18:31:45;4.27;;;1.50;;
20792;SDS011;10556;-33.662;151.094;2023-03-01T18:36:47;5.43;;;1.10;;
20792;SDS011;10556;-33.662;151.094;2023-03-01T18:41:50;4.07;;;1.00;;
20792;SDS011;10556;-33.662;151.094;2023-03-01T18:46:51;5.77;;;1.30;;
20792;SDS011;10556;-33.662;151.094;2023-03-01T18:51:52;4.53;;;1.57;;
20792;SDS011;10556;-33.662;151.094;2023-03-01T18:56:55;3.67;;;1.23;;
20792;SDS011;10556;-33.662;151.094;2023-03-01T19:01:56;5.13;;;1.60;;
20792;SDS011;10556;-33.662;151.094;2023-03-01T19:06:58;4.07;;;1.87;;
20792;SDS011;10556;-33.662;151.094;2023-03-01T19:12:01;3.57;;;1.30;;
20792;SDS011;10556;-33.662;151.094;2023-03-01T19:17:02;4.97;;;1.40;;
20792;SDS011;10556;-33.662;151.094;2023-03-01T19:22:03;4.40;;;1.33;;
20792;SDS011;10556;-33.662;151.094;2023-03-01T19:27:06;4.07;;;1.50;;
20792;SDS011;10556;-33.662;151.094;2023-03-01T19:32:08;6.40;;;1.30;;
20792;SDS011;10556;-33.662;151.094;2023-03-01T19:37:09;3.17;;;1.13;;
20792;SDS011;10556;-33.662;151.094;2023-03-01T19:42:12;9.77;;;1.63;;
20792;SDS011;10556;-33.662;151.094;2023-03-01T19:47:13;4.97;;;1.60;;
20792;SDS011;10556;-33.662;151.094;2023-03-01T19:52:15;3.13;;;1.30;;
20792;SDS011;10556;-33.662;151.094;2023-03-01T19:57:18;3.27;;;1.47;;
20792;SDS011;10556;-33.662;151.094;2023-03-01T20:02:19;4.13;;;1.33;;
20792;SDS011;10556;-33.662;151.094;2023-03-01T20:07:20;3.33;;;1.40;;
20792;SDS011;10556;-33.662;151.094;2023-03-01T20:12:24;7.47;;;1.67;;
20792;SDS011;10556;-33.662;151.094;2023-03-01T20:17:25;2.43;;;1.43;;
20792;SDS011;10556;-33.662;151.094;2023-03-01T20:22:26;3.70;;;1.53;;
20792;SDS011;10556;-33.662;151.094;2023-03-01T20:27:29;3.37;;;1.27;;
20792;SDS011;10556;-33.662;151.094;2023-03-01T20:32:30;2.70;;;1.20;;
20792;SDS011;10556;-33.662;151.094;2023-03-01T20:37:32;2.33;;;1.23;;
20792;SDS011;10556;-33.662;151.094;2023-03-01T20:42:35;3.23;;;1.40;;
20792;SDS011;10556;-33.662;151.094;2023-03-01T20:47:36;5.37;;;1.37;;
20792;SDS011;10556;-33.662;151.094;2023-03-01T20:52:37;4.80;;;1.53;;
20792;SDS011;10556;-33.662;151.094;2023-03-01T20:57:40;4.50;;;1.50;;
20792;SDS011;10556;-33.662;151.094;2023-03-01T21:02:41;3.63;;;1.80;;
20792;SDS011;10556;-33.662;151.094;2023-03-01T21:07:43;2.93;;;1.30;;
20792;SDS011;10556;-33.662;151.094;2023-03-01T21:12:46;2.33;;;1.07;;
20792;SDS011;10556;-33.662;151.094;2023-03-01T21:17:47;3.27;;;1.30;;
20792;SDS011;10556;-33.662;151.094;2023-03-01T21:22:48;3.90;;;1.23;;
20792;SDS011;10556;-33.662;151.094;2023-03-01T21:27:51;4.27;;;1.20;;
20792;SDS011;10556;-33.662;151.094;2023-03-01T21:32:52;5.07;;;1.60;;
20792;SDS011;10556;-33.662;151.094;2023-03-01T21:37:54;4.23;;;1.70;;
20792;SDS011;10556;-33.662;151.094;2023-03-01T21:42:57;5.97;;;1.00;;
20792;SDS011;10556;-33.662;151.094;2023-03-01T21:47:58;3.57;;;1.20;;
20792;SDS011;10556;-33.662;151.094;2023-03-01T21:52:59;3.03;;;1.13;;
20792;SDS011;10556;-33.662;151.094;2023-03-01T21:58:02;3.17;;;1.17;;
20792;SDS011;10556;-33.662;151.094;2023-03-01T22:03:03;2.60;;;1.03;;
20792;SDS011;10556;-33.662;151.094;2023-03-01T22:08:05;3.27;;;1.30;;
20792;SDS011;10556;-33.662;151.094;2023-03-01T22:13:08;3.30;;;1.63;;
20792;SDS011;10556;-33.662;151.094;2023-03-01T22:18:10;2.77;;;1.30;;
20792;SDS011;10556;-33.662;151.094;2023-03-01T22:23:11;2.13;;;1.20;;
20792;SDS011;10556;-33.662;151.094;2023-03-01T22:28:14;3.53;;;1.50;;
20792;SDS011;10556;-33.662;151.094;2023-03-01T22:33:15;5.53;;;1.40;;
20792;SDS011;10556;-33.662;151.094;2023-03-01T22:38:17;5.00;;;1.80;;
20792;SDS011;10556;-33.662;151.094;2023-03-01T22:43:20;4.17;;;1.43;;
20792;SDS011;10556;-33.662;151.094;2023-03-01T22:48:21;11.53;;;2.17;;
20792;SDS011;10556;-33.662;151.094;2023-03-01T22:53:22;3.67;;;1.40;;
20792;SDS011;10556;-33.662;151.094;2023-03-01T22:58:25;11.47;;;2.83;;
20792;SDS011;10556;-33.662;151.094;2023-03-01T23:03:26;5.40;;;1.30;;
20792;SDS011;10556;-33.662;151.094;2023-03-01T23:08:28;3.90;;;1.20;;
20792;SDS011;10556;-33.662;151.094;2023-03-01T23:13:31;2.23;;;0.93;;
20792;SDS011;10556;-33.662;151.094;2023-03-01T23:18:32;2.47;;;1.00;;
20792;SDS011;10556;-33.662;151.094;2023-03-01T23:23:33;3.10;;;0.60;;
20792;SDS011;10556;-33.662;151.094;2023-03-01T23:28:36;3.07;;;0.80;;
20792;SDS011;10556;-33.662;151.094;2023-03-01T23:33:38;0.80;;;0.60;;
20792;SDS011;10556;-33.662;151.094;2023-03-01T23:38:39;1.33;;;0.60;;
20792;SDS011;10556;-33.662;151.094;2023-03-01T23:43:44;1.47;;;0.60;;
20792;SDS011;10556;-33.662;151.094;2023-03-01T23:48:46;4.17;;;0.80;;
20792;SDS011;10556;-33.662;151.094;2023-03-01T23:53:47;1.90;;;0.67;;
20792;SDS011;10556;-33.662;151.094;2023-03-01T23:58:51;1.57;;;0.70;;
